Share

Charlottetown, Prince Edward Island

Charlottetown (CYYG) Elev 157 ft | 46.29 °N, 63.13 °W | Change Station

Current weather conditions updated 24 minutes ago

Partly Cloudy
Partly Cloudy
36 °F
Feels Like 30 °F
N
7
Wind Variable Wind from South
Sunrise 6:17 AM
Sunset 8:06 PM
Moon Waning Gibbous

Tomorrow is forecast to be Much Warmer than today.

Pressure 30.34 in
Visibility 15.0 miles
Clouds Few 21000 ft
Windchill 30 °F
Dew Point 18 °F
Humidity 48%
Rainfall 0.00 in
Snow Depth Not available.
UV 0 out of 16
Pollen Not available.
Air Quality Not available.
Flu Activity Not available.
SPECI CYYG 202316Z 18006KT 15SM FEW210 02/M08 A3033 RMK CC2 SLP274

More Conditions Fewer Conditions

Pressure 30.34 in
Visibility 15.0 miles
Clouds Few 21000 ft
Windchill 30 °F
Dew Point 18 °F
Humidity 48%
Rainfall 0.00 in
Snow Depth Not available.
UV 0 out of 16
Pollen Not available.
Air Quality Not available.
Flu Activity Not available.
SPECI CYYG 202316Z 18006KT 15SM FEW210 02/M08 A3033 RMK CC2 SLP274

More Conditions Fewer Conditions

10-Day Weather Forecast

Almanac

Astronomy

Apr. 20, 2014 Rise Set
Actual Time 6:17 AM ADT 8:06 PM ADT
Civil Twilight 5:45 AM ADT 8:38 PM ADT
Nautical Twilight 5:06 AM ADT 9:18 PM ADT
Astronomical Twilight 4:23 AM ADT 10:01 PM ADT
Moon 12:49 AM ADT 10:25 AM ADT
Length of Visible Light 14h 53m
Length of Day
13h 49m
Tomorrow will be 3m 4s longer.
Waning Gibbous, 65% of the Moon is Illuminated
Today
Waning Gibbous
Apr 22
Last Quarter
Apr 29
New
May 6
First Quarter
May 14
Full

Today's Extremes

Country Highs Country Lows

Community

  • Easter Dance
    Easter Dance
  • spring skiing mount Baker WA
    spring skiing mount Baker WA
  • Morning Sun
    Morning Sun
  • Happy Easter
    Happy Easter
  • after rain
    after rain

WunderPhotos

Upload Photos

1,703,436 photos uploaded!

WunderBlogs® & News

Nearby

Snow Depth

Not available.

Coastal Water Temperatures

Place Temperature
No Stations Reporting

Earthquake Activity

City Distance Mag. Time & Date
No recent earthquake activity has been reported nearby.
Minimum magnitude displayed is 2.5.

Nearby Weather Stations

Station Location Temp. Windchill Dew Point Humidity Wind Precip. Elev Updated Type
Winsloe Road, Winsloe South 37.0 °F 37 °F 23 °F 56% SSW  at  2.0 mph 0.00 in / hr 200 ft 8:35 PM ADT Normal
Winter Bay Observatory, Millcove 31.9 °F 32 °F 22 °F 65% SSE  at  0.0 mph 0.00 in / hr 26 ft 8:30 PM ADT Normal
Elmwood, Elmwood 35.4 °F 35 °F 24 °F 64% SSW  at  2.0 mph 0.00 in / hr 233 ft 8:35 PM ADT Normal
Orwell Cove, Vernon Bridge 32.9 °F 33 °F 26 °F 77% SW  at  1.0 mph 0.00 in / hr 89 ft 8:35 PM ADT Normal
Belfast, Flat River 30.9 °F 31 °F 15 °F 52% North  at  0.0 mph 0.00 in / hr 50 ft 8:30 PM ADT Normal

Show More Stations Show Fewer Stations

What do you think?

We're not finished. Please let us know what you like, what you don't like, and what you are still missing.